sensor_id;sensor_type;location;lat;lon;timestamp;P1;durP1;ratioP1;P2;durP2;ratioP2
56075;SDS011;41951;49.022;12.066;2022-12-18T00:01:03;52.75;;;21.67;;
56075;SDS011;41951;49.022;12.066;2022-12-18T00:03:42;52.83;;;22.02;;
56075;SDS011;41951;49.022;12.066;2022-12-18T00:06:08;53.60;;;21.60;;
56075;SDS011;41951;49.022;12.066;2022-12-18T00:08:34;48.75;;;21.30;;
56075;SDS011;41951;49.022;12.066;2022-12-18T00:11:07;54.75;;;22.38;;
56075;SDS011;41951;49.022;12.066;2022-12-18T00:13:34;57.47;;;22.17;;
56075;SDS011;41951;49.022;12.066;2022-12-18T00:16:03;50.75;;;22.45;;
56075;SDS011;41951;49.022;12.066;2022-12-18T00:18:31;54.45;;;21.73;;
56075;SDS011;41951;49.022;12.066;2022-12-18T00:21:00;53.42;;;21.70;;
56075;SDS011;41951;49.022;12.066;2022-12-18T00:25:54;58.05;;;20.05;;
56075;SDS011;41951;49.022;12.066;2022-12-18T00:28:20;52.55;;;21.00;;
56075;SDS011;41951;49.022;12.066;2022-12-18T00:30:45;56.90;;;21.63;;
56075;SDS011;41951;49.022;12.066;2022-12-18T00:33:11;52.42;;;21.67;;
56075;SDS011;41951;49.022;12.066;2022-12-18T00:35:37;52.35;;;20.17;;
56075;SDS011;41951;49.022;12.066;2022-12-18T00:38:02;55.22;;;21.33;;
56075;SDS011;41951;49.022;12.066;2022-12-18T00:40:28;51.72;;;20.38;;
56075;SDS011;41951;49.022;12.066;2022-12-18T00:42:53;56.25;;;21.40;;
56075;SDS011;41951;49.022;12.066;2022-12-18T00:45:22;46.58;;;19.83;;
56075;SDS011;41951;49.022;12.066;2022-12-18T00:50:18;50.67;;;19.38;;
56075;SDS011;41951;49.022;12.066;2022-12-18T00:52:44;53.70;;;20.52;;
56075;SDS011;41951;49.022;12.066;2022-12-18T00:55:09;59.58;;;22.67;;
56075;SDS011;41951;49.022;12.066;2022-12-18T00:57:35;52.40;;;20.70;;
56075;SDS011;41951;49.022;12.066;2022-12-18T01:00:02;51.55;;;20.08;;
56075;SDS011;41951;49.022;12.066;2022-12-18T01:02:29;52.42;;;20.90;;
56075;SDS011;41951;49.022;12.066;2022-12-18T01:04:55;50.97;;;20.60;;
56075;SDS011;41951;49.022;12.066;2022-12-18T01:07:20;47.25;;;21.77;;
56075;SDS011;41951;49.022;12.066;2022-12-18T01:09:46;56.97;;;21.08;;
56075;SDS011;41951;49.022;12.066;2022-12-18T01:12:12;49.92;;;20.65;;
56075;SDS011;41951;49.022;12.066;2022-12-18T01:14:37;48.38;;;19.25;;
56075;SDS011;41951;49.022;12.066;2022-12-18T01:17:03;49.88;;;21.00;;
56075;SDS011;41951;49.022;12.066;2022-12-18T01:19:29;53.67;;;20.65;;
56075;SDS011;41951;49.022;12.066;2022-12-18T01:21:55;53.70;;;21.52;;
56075;SDS011;41951;49.022;12.066;2022-12-18T01:24:21;49.25;;;19.23;;
56075;SDS011;41951;49.022;12.066;2022-12-18T01:26:46;48.78;;;19.80;;
56075;SDS011;41951;49.022;12.066;2022-12-18T01:29:12;49.22;;;20.70;;
56075;SDS011;41951;49.022;12.066;2022-12-18T01:31:38;48.50;;;20.42;;
56075;SDS011;41951;49.022;12.066;2022-12-18T01:34:04;45.20;;;18.17;;
56075;SDS011;41951;49.022;12.066;2022-12-18T01:36:31;50.47;;;20.35;;
56075;SDS011;41951;49.022;12.066;2022-12-18T01:39:01;44.35;;;18.27;;
56075;SDS011;41951;49.022;12.066;2022-12-18T01:41:29;44.50;;;17.35;;
56075;SDS011;41951;49.022;12.066;2022-12-18T01:47:27;50.55;;;19.45;;
56075;SDS011;41951;49.022;12.066;2022-12-18T01:50:02;52.85;;;19.02;;
56075;SDS011;41951;49.022;12.066;2022-12-18T01:52:31;42.92;;;18.55;;
56075;SDS011;41951;49.022;12.066;2022-12-18T01:54:57;52.45;;;19.80;;
56075;SDS011;41951;49.022;12.066;2022-12-18T01:57:24;51.90;;;19.38;;
56075;SDS011;41951;49.022;12.066;2022-12-18T01:59:51;44.47;;;18.63;;
56075;SDS011;41951;49.022;12.066;2022-12-18T02:02:19;47.10;;;18.90;;
56075;SDS011;41951;49.022;12.066;2022-12-18T02:04:46;51.00;;;19.75;;
56075;SDS011;41951;49.022;12.066;2022-12-18T02:10:00;51.47;;;19.38;;
56075;SDS011;41951;49.022;12.066;2022-12-18T02:12:42;46.15;;;20.30;;
56075;SDS011;41951;49.022;12.066;2022-12-18T02:15:15;51.95;;;20.17;;
56075;SDS011;41951;49.022;12.066;2022-12-18T02:17:54;54.08;;;20.40;;
56075;SDS011;41951;49.022;12.066;2022-12-18T02:20:35;56.70;;;21.25;;
56075;SDS011;41951;49.022;12.066;2022-12-18T02:23:20;56.75;;;22.15;;
56075;SDS011;41951;49.022;12.066;2022-12-18T02:26:20;60.75;;;21.92;;
56075;SDS011;41951;49.022;12.066;2022-12-18T02:28:56;56.55;;;23.02;;
56075;SDS011;41951;49.022;12.066;2022-12-18T02:31:28;57.20;;;22.15;;
56075;SDS011;41951;49.022;12.066;2022-12-18T02:33:59;60.63;;;24.05;;
56075;SDS011;41951;49.022;12.066;2022-12-18T02:36:27;65.57;;;23.58;;
56075;SDS011;41951;49.022;12.066;2022-12-18T02:38:54;61.33;;;21.70;;
56075;SDS011;41951;49.022;12.066;2022-12-18T02:41:21;54.88;;;20.70;;
56075;SDS011;41951;49.022;12.066;2022-12-18T02:43:48;59.60;;;21.70;;
56075;SDS011;41951;49.022;12.066;2022-12-18T02:59:50;44.83;;;17.00;;
56075;SDS011;41951;49.022;12.066;2022-12-18T03:05:14;39.55;;;16.08;;
56075;SDS011;41951;49.022;12.066;2022-12-18T03:07:48;42.10;;;18.25;;
56075;SDS011;41951;49.022;12.066;2022-12-18T03:10:16;38.75;;;17.05;;
56075;SDS011;41951;49.022;12.066;2022-12-18T03:12:51;37.75;;;15.30;;
56075;SDS011;41951;49.022;12.066;2022-12-18T03:15:25;41.42;;;16.38;;
56075;SDS011;41951;49.022;12.066;2022-12-18T03:18:02;39.97;;;15.50;;
56075;SDS011;41951;49.022;12.066;2022-12-18T03:20:35;37.88;;;14.95;;
56075;SDS011;41951;49.022;12.066;2022-12-18T03:23:07;37.80;;;15.63;;
56075;SDS011;41951;49.022;12.066;2022-12-18T03:25:37;38.33;;;16.55;;
56075;SDS011;41951;49.022;12.066;2022-12-18T03:28:06;45.08;;;19.02;;
56075;SDS011;41951;49.022;12.066;2022-12-18T03:30:37;45.72;;;16.75;;
56075;SDS011;41951;49.022;12.066;2022-12-18T03:33:07;47.00;;;18.90;;
56075;SDS011;41951;49.022;12.066;2022-12-18T03:35:38;41.38;;;16.20;;
56075;SDS011;41951;49.022;12.066;2022-12-18T03:38:07;43.55;;;17.48;;
56075;SDS011;41951;49.022;12.066;2022-12-18T03:40:57;39.80;;;16.15;;
56075;SDS011;41951;49.022;12.066;2022-12-18T03:46:15;42.72;;;16.70;;
56075;SDS011;41951;49.022;12.066;2022-12-18T03:48:52;43.47;;;16.70;;
56075;SDS011;41951;49.022;12.066;2022-12-18T03:54:42;37.35;;;16.02;;
56075;SDS011;41951;49.022;12.066;2022-12-18T03:57:12;42.40;;;17.45;;
56075;SDS011;41951;49.022;12.066;2022-12-18T04:02:07;41.28;;;15.98;;
56075;SDS011;41951;49.022;12.066;2022-12-18T04:04:35;39.90;;;15.00;;
56075;SDS011;41951;49.022;12.066;2022-12-18T04:07:03;41.28;;;17.08;;
56075;SDS011;41951;49.022;12.066;2022-12-18T04:09:30;35.63;;;16.23;;
56075;SDS011;41951;49.022;12.066;2022-12-18T04:11:57;38.85;;;17.42;;
56075;SDS011;41951;49.022;12.066;2022-12-18T04:14:23;32.90;;;14.70;;
56075;SDS011;41951;49.022;12.066;2022-12-18T04:16:48;35.75;;;14.45;;
56075;SDS011;41951;49.022;12.066;2022-12-18T04:19:14;31.95;;;15.05;;
56075;SDS011;41951;49.022;12.066;2022-12-18T04:21:40;35.47;;;16.15;;
56075;SDS011;41951;49.022;12.066;2022-12-18T04:24:05;38.50;;;15.65;;
56075;SDS011;41951;49.022;12.066;2022-12-18T04:26:31;41.08;;;16.85;;
56075;SDS011;41951;49.022;12.066;2022-12-18T04:28:57;37.58;;;16.45;;
56075;SDS011;41951;49.022;12.066;2022-12-18T04:31:22;36.13;;;16.33;;
56075;SDS011;41951;49.022;12.066;2022-12-18T04:33:48;42.03;;;15.55;;
56075;SDS011;41951;49.022;12.066;2022-12-18T04:36:14;32.50;;;14.88;;
56075;SDS011;41951;49.022;12.066;2022-12-18T04:38:39;33.97;;;16.02;;
56075;SDS011;41951;49.022;12.066;2022-12-18T04:41:05;42.42;;;16.73;;
56075;SDS011;41951;49.022;12.066;2022-12-18T04:43:31;46.38;;;17.23;;
56075;SDS011;41951;49.022;12.066;2022-12-18T04:46:07;34.58;;;14.23;;
56075;SDS011;41951;49.022;12.066;2022-12-18T04:48:33;37.58;;;14.48;;
56075;SDS011;41951;49.022;12.066;2022-12-18T04:50:59;33.30;;;14.68;;
56075;SDS011;41951;49.022;12.066;2022-12-18T04:53:25;37.13;;;15.00;;
56075;SDS011;41951;49.022;12.066;2022-12-18T04:55:51;36.85;;;15.57;;
56075;SDS011;41951;49.022;12.066;2022-12-18T04:58:30;31.73;;;14.95;;
56075;SDS011;41951;49.022;12.066;2022-12-18T05:00:56;34.33;;;15.20;;
56075;SDS011;41951;49.022;12.066;2022-12-18T05:03:22;36.88;;;14.77;;
56075;SDS011;41951;49.022;12.066;2022-12-18T05:05:50;34.72;;;14.95;;
56075;SDS011;41951;49.022;12.066;2022-12-18T05:08:16;42.03;;;16.08;;
56075;SDS011;41951;49.022;12.066;2022-12-18T05:10:42;36.40;;;14.77;;
56075;SDS011;41951;49.022;12.066;2022-12-18T05:13:08;35.25;;;15.15;;
56075;SDS011;41951;49.022;12.066;2022-12-18T05:15:34;34.53;;;13.73;;
56075;SDS011;41951;49.022;12.066;2022-12-18T05:18:00;37.53;;;14.82;;
56075;SDS011;41951;49.022;12.066;2022-12-18T05:20:26;37.17;;;14.57;;
56075;SDS011;41951;49.022;12.066;2022-12-18T05:22:52;36.78;;;14.52;;
56075;SDS011;41951;49.022;12.066;2022-12-18T05:25:19;29.23;;;12.20;;
56075;SDS011;41951;49.022;12.066;2022-12-18T05:27:45;34.42;;;13.45;;
56075;SDS011;41951;49.022;12.066;2022-12-18T05:30:11;32.70;;;14.48;;
56075;SDS011;41951;49.022;12.066;2022-12-18T05:32:37;34.70;;;13.10;;
56075;SDS011;41951;49.022;12.066;2022-12-18T05:35:03;32.60;;;13.13;;
56075;SDS011;41951;49.022;12.066;2022-12-18T05:37:30;34.78;;;13.52;;
56075;SDS011;41951;49.022;12.066;2022-12-18T05:39:56;33.65;;;14.35;;
56075;SDS011;41951;49.022;12.066;2022-12-18T05:42:21;40.42;;;15.57;;
56075;SDS011;41951;49.022;12.066;2022-12-18T05:44:47;36.70;;;15.38;;
56075;SDS011;41951;49.022;12.066;2022-12-18T05:47:13;38.55;;;17.13;;
56075;SDS011;41951;49.022;12.066;2022-12-18T05:49:38;40.55;;;14.57;;
56075;SDS011;41951;49.022;12.066;2022-12-18T05:52:04;32.58;;;13.35;;
56075;SDS011;41951;49.022;12.066;2022-12-18T05:54:30;38.83;;;14.98;;
56075;SDS011;41951;49.022;12.066;2022-12-18T05:56:56;35.10;;;14.20;;
56075;SDS011;41951;49.022;12.066;2022-12-18T05:59:22;34.42;;;14.63;;
56075;SDS011;41951;49.022;12.066;2022-12-18T06:01:47;36.00;;;13.98;;
56075;SDS011;41951;49.022;12.066;2022-12-18T06:04:13;34.55;;;14.65;;
56075;SDS011;41951;49.022;12.066;2022-12-18T06:06:39;38.88;;;15.95;;
56075;SDS011;41951;49.022;12.066;2022-12-18T06:09:05;38.15;;;16.08;;
56075;SDS011;41951;49.022;12.066;2022-12-18T06:11:35;40.42;;;15.23;;
56075;SDS011;41951;49.022;12.066;2022-12-18T06:14:03;41.42;;;17.50;;
56075;SDS011;41951;49.022;12.066;2022-12-18T06:16:30;38.65;;;15.70;;
56075;SDS011;41951;49.022;12.066;2022-12-18T06:18:57;40.08;;;14.60;;
56075;SDS011;41951;49.022;12.066;2022-12-18T06:21:23;37.78;;;16.42;;
56075;SDS011;41951;49.022;12.066;2022-12-18T06:23:49;39.53;;;16.38;;
56075;SDS011;41951;49.022;12.066;2022-12-18T06:26:14;43.55;;;15.20;;
56075;SDS011;41951;49.022;12.066;2022-12-18T06:28:40;42.42;;;16.70;;
56075;SDS011;41951;49.022;12.066;2022-12-18T06:31:06;40.15;;;15.60;;
56075;SDS011;41951;49.022;12.066;2022-12-18T06:33:32;36.75;;;15.60;;
56075;SDS011;41951;49.022;12.066;2022-12-18T06:36:05;38.55;;;13.90;;
56075;SDS011;41951;49.022;12.066;2022-12-18T06:38:32;39.75;;;13.68;;
56075;SDS011;41951;49.022;12.066;2022-12-18T06:40:58;37.55;;;15.52;;
56075;SDS011;41951;49.022;12.066;2022-12-18T06:43:24;36.33;;;14.98;;
56075;SDS011;41951;49.022;12.066;2022-12-18T06:45:50;40.63;;;15.52;;
56075;SDS011;41951;49.022;12.066;2022-12-18T06:48:18;46.03;;;15.27;;
56075;SDS011;41951;49.022;12.066;2022-12-18T06:50:45;40.97;;;16.67;;
56075;SDS011;41951;49.022;12.066;2022-12-18T06:53:10;44.80;;;15.15;;
56075;SDS011;41951;49.022;12.066;2022-12-18T06:55:36;37.78;;;15.82;;
56075;SDS011;41951;49.022;12.066;2022-12-18T06:58:02;40.70;;;16.02;;
56075;SDS011;41951;49.022;12.066;2022-12-18T07:00:27;41.05;;;15.57;;
56075;SDS011;41951;49.022;12.066;2022-12-18T07:02:53;45.83;;;16.25;;
56075;SDS011;41951;49.022;12.066;2022-12-18T07:05:19;44.55;;;16.33;;
56075;SDS011;41951;49.022;12.066;2022-12-18T07:07:44;45.58;;;17.33;;
56075;SDS011;41951;49.022;12.066;2022-12-18T07:10:10;41.05;;;16.13;;
56075;SDS011;41951;49.022;12.066;2022-12-18T07:12:35;45.42;;;17.17;;
56075;SDS011;41951;49.022;12.066;2022-12-18T07:15:01;41.40;;;15.40;;
56075;SDS011;41951;49.022;12.066;2022-12-18T07:17:27;47.47;;;17.55;;
56075;SDS011;41951;49.022;12.066;2022-12-18T07:19:54;42.53;;;16.42;;
56075;SDS011;41951;49.022;12.066;2022-12-18T07:22:20;39.35;;;15.98;;
56075;SDS011;41951;49.022;12.066;2022-12-18T07:24:45;44.33;;;16.60;;
56075;SDS011;41951;49.022;12.066;2022-12-18T07:27:14;40.13;;;15.30;;
56075;SDS011;41951;49.022;12.066;2022-12-18T07:29:40;43.60;;;16.67;;
56075;SDS011;41951;49.022;12.066;2022-12-18T07:32:06;45.13;;;17.05;;
56075;SDS011;41951;49.022;12.066;2022-12-18T07:34:32;42.55;;;17.27;;
56075;SDS011;41951;49.022;12.066;2022-12-18T07:36:57;44.65;;;16.50;;
56075;SDS011;41951;49.022;12.066;2022-12-18T07:39:23;44.65;;;16.17;;
56075;SDS011;41951;49.022;12.066;2022-12-18T07:41:49;46.63;;;16.60;;
56075;SDS011;41951;49.022;12.066;2022-12-18T07:44:34;44.67;;;16.75;;
56075;SDS011;41951;49.022;12.066;2022-12-18T07:47:01;45.17;;;18.30;;
56075;SDS011;41951;49.022;12.066;2022-12-18T07:49:27;52.10;;;16.48;;
56075;SDS011;41951;49.022;12.066;2022-12-18T07:51:53;49.38;;;17.33;;
56075;SDS011;41951;49.022;12.066;2022-12-18T07:54:21;47.47;;;16.83;;
56075;SDS011;41951;49.022;12.066;2022-12-18T07:56:47;45.85;;;16.85;;
56075;SDS011;41951;49.022;12.066;2022-12-18T07:59:13;47.60;;;17.60;;
56075;SDS011;41951;49.022;12.066;2022-12-18T08:01:38;56.03;;;20.40;;
56075;SDS011;41951;49.022;12.066;2022-12-18T08:04:04;48.63;;;17.90;;
56075;SDS011;41951;49.022;12.066;2022-12-18T08:06:30;42.60;;;16.70;;
56075;SDS011;41951;49.022;12.066;2022-12-18T08:08:56;43.72;;;16.65;;
56075;SDS011;41951;49.022;12.066;2022-12-18T08:11:22;50.45;;;18.00;;
56075;SDS011;41951;49.022;12.066;2022-12-18T08:13:49;41.22;;;15.48;;
56075;SDS011;41951;49.022;12.066;2022-12-18T08:16:15;42.88;;;16.00;;
56075;SDS011;41951;49.022;12.066;2022-12-18T08:18:41;50.08;;;17.45;;
56075;SDS011;41951;49.022;12.066;2022-12-18T08:21:07;39.92;;;14.52;;
56075;SDS011;41951;49.022;12.066;2022-12-18T08:26:03;46.15;;;16.90;;
56075;SDS011;41951;49.022;12.066;2022-12-18T08:28:28;41.05;;;17.25;;
56075;SDS011;41951;49.022;12.066;2022-12-18T08:30:54;44.40;;;16.38;;
56075;SDS011;41951;49.022;12.066;2022-12-18T08:33:20;42.80;;;16.67;;
56075;SDS011;41951;49.022;12.066;2022-12-18T08:35:45;43.30;;;17.63;;
56075;SDS011;41951;49.022;12.066;2022-12-18T08:38:11;34.78;;;14.20;;
56075;SDS011;41951;49.022;12.066;2022-12-18T08:40:36;37.60;;;13.98;;
56075;SDS011;41951;49.022;12.066;2022-12-18T08:43:02;32.13;;;13.77;;
56075;SDS011;41951;49.022;12.066;2022-12-18T08:45:46;38.83;;;14.85;;
56075;SDS011;41951;49.022;12.066;2022-12-18T08:48:11;31.27;;;12.77;;
56075;SDS011;41951;49.022;12.066;2022-12-18T08:50:37;36.97;;;14.80;;
56075;SDS011;41951;49.022;12.066;2022-12-18T08:53:03;34.83;;;14.43;;
56075;SDS011;41951;49.022;12.066;2022-12-18T08:55:28;35.13;;;14.82;;
56075;SDS011;41951;49.022;12.066;2022-12-18T08:57:54;32.88;;;13.85;;
56075;SDS011;41951;49.022;12.066;2022-12-18T09:00:20;34.95;;;14.93;;
56075;SDS011;41951;49.022;12.066;2022-12-18T09:02:45;34.15;;;13.43;;
56075;SDS011;41951;49.022;12.066;2022-12-18T09:05:11;36.28;;;14.57;;
56075;SDS011;41951;49.022;12.066;2022-12-18T09:07:36;38.75;;;14.05;;
56075;SDS011;41951;49.022;12.066;2022-12-18T09:10:02;33.08;;;14.27;;
56075;SDS011;41951;49.022;12.066;2022-12-18T09:12:28;36.38;;;14.32;;
56075;SDS011;41951;49.022;12.066;2022-12-18T09:14:54;35.17;;;13.45;;
56075;SDS011;41951;49.022;12.066;2022-12-18T09:17:21;31.10;;;13.18;;
56075;SDS011;41951;49.022;12.066;2022-12-18T09:19:46;45.40;;;18.02;;
56075;SDS011;41951;49.022;12.066;2022-12-18T09:22:12;37.13;;;15.00;;
56075;SDS011;41951;49.022;12.066;2022-12-18T09:24:38;42.20;;;16.00;;
56075;SDS011;41951;49.022;12.066;2022-12-18T09:27:03;34.80;;;14.10;;
56075;SDS011;41951;49.022;12.066;2022-12-18T09:29:29;40.75;;;14.57;;
56075;SDS011;41951;49.022;12.066;2022-12-18T09:31:55;39.53;;;15.02;;
56075;SDS011;41951;49.022;12.066;2022-12-18T09:34:21;34.28;;;14.27;;
56075;SDS011;41951;49.022;12.066;2022-12-18T09:36:46;32.97;;;12.93;;
56075;SDS011;41951;49.022;12.066;2022-12-18T09:39:13;36.38;;;15.60;;
56075;SDS011;41951;49.022;12.066;2022-12-18T09:41:51;34.78;;;13.77;;
56075;SDS011;41951;49.022;12.066;2022-12-18T09:44:29;30.90;;;13.93;;
56075;SDS011;41951;49.022;12.066;2022-12-18T09:49:40;35.17;;;14.32;;
56075;SDS011;41951;49.022;12.066;2022-12-18T09:55:20;39.67;;;14.13;;
56075;SDS011;41951;49.022;12.066;2022-12-18T09:57:58;34.35;;;13.98;;
56075;SDS011;41951;49.022;12.066;2022-12-18T10:00:29;37.47;;;14.77;;
56075;SDS011;41951;49.022;12.066;2022-12-18T10:02:59;36.67;;;16.42;;
56075;SDS011;41951;49.022;12.066;2022-12-18T10:05:37;44.58;;;18.08;;
56075;SDS011;41951;49.022;12.066;2022-12-18T10:08:18;42.00;;;16.77;;
56075;SDS011;41951;49.022;12.066;2022-12-18T10:10:51;40.85;;;15.07;;
56075;SDS011;41951;49.022;12.066;2022-12-18T10:21:37;30.55;;;13.00;;
56075;SDS011;41951;49.022;12.066;2022-12-18T10:24:53;32.75;;;13.70;;
56075;SDS011;41951;49.022;12.066;2022-12-18T10:27:23;37.40;;;15.85;;
56075;SDS011;41951;49.022;12.066;2022-12-18T10:29:51;37.55;;;15.43;;
56075;SDS011;41951;49.022;12.066;2022-12-18T10:32:18;38.28;;;15.90;;
56075;SDS011;41951;49.022;12.066;2022-12-18T10:34:48;42.65;;;16.73;;
56075;SDS011;41951;49.022;12.066;2022-12-18T10:37:19;36.15;;;15.18;;
56075;SDS011;41951;49.022;12.066;2022-12-18T10:42:33;33.60;;;14.43;;
56075;SDS011;41951;49.022;12.066;2022-12-18T10:45:05;37.55;;;14.35;;
56075;SDS011;41951;49.022;12.066;2022-12-18T10:47:42;38.95;;;14.50;;
56075;SDS011;41951;49.022;12.066;2022-12-18T10:50:30;31.48;;;13.52;;
56075;SDS011;41951;49.022;12.066;2022-12-18T10:52:59;29.88;;;14.02;;
56075;SDS011;41951;49.022;12.066;2022-12-18T10:55:31;33.75;;;13.68;;
56075;SDS011;41951;49.022;12.066;2022-12-18T10:58:16;32.17;;;13.45;;
56075;SDS011;41951;49.022;12.066;2022-12-18T11:03:39;32.03;;;13.00;;
56075;SDS011;41951;49.022;12.066;2022-12-18T11:06:17;41.50;;;15.25;;
56075;SDS011;41951;49.022;12.066;2022-12-18T11:11:48;36.15;;;14.93;;
56075;SDS011;41951;49.022;12.066;2022-12-18T11:14:22;37.00;;;14.82;;
56075;SDS011;41951;49.022;12.066;2022-12-18T11:16:48;34.90;;;15.33;;
56075;SDS011;41951;49.022;12.066;2022-12-18T11:22:53;33.97;;;14.90;;
56075;SDS011;41951;49.022;12.066;2022-12-18T11:25:16;38.60;;;15.45;;
56075;SDS011;41951;49.022;12.066;2022-12-18T11:27:54;35.22;;;13.73;;
56075;SDS011;41951;49.022;12.066;2022-12-18T11:30:22;31.33;;;14.75;;
56075;SDS011;41951;49.022;12.066;2022-12-18T11:32:51;44.35;;;17.75;;
56075;SDS011;41951;49.022;12.066;2022-12-18T11:35:19;34.17;;;14.70;;
56075;SDS011;41951;49.022;12.066;2022-12-18T11:38:34;39.70;;;16.77;;
56075;SDS011;41951;49.022;12.066;2022-12-18T11:43:26;34.03;;;14.25;;
56075;SDS011;41951;49.022;12.066;2022-12-18T11:46:26;36.15;;;14.20;;
56075;SDS011;41951;49.022;12.066;2022-12-18T11:48:58;40.08;;;15.88;;
56075;SDS011;41951;49.022;12.066;2022-12-18T11:51:35;42.17;;;15.48;;
56075;SDS011;41951;49.022;12.066;2022-12-18T11:54:14;39.15;;;16.88;;
56075;SDS011;41951;49.022;12.066;2022-12-18T11:56:54;36.45;;;16.05;;
56075;SDS011;41951;49.022;12.066;2022-12-18T12:04:56;37.10;;;14.98;;
56075;SDS011;41951;49.022;12.066;2022-12-18T12:07:38;39.88;;;16.75;;
56075;SDS011;41951;49.022;12.066;2022-12-18T12:19:15;41.08;;;16.55;;
56075;SDS011;41951;49.022;12.066;2022-12-18T12:24:16;35.75;;;15.38;;
56075;SDS011;41951;49.022;12.066;2022-12-18T12:30:39;35.67;;;15.57;;
56075;SDS011;41951;49.022;12.066;2022-12-18T12:38:35;35.38;;;16.67;;
56075;SDS011;41951;49.022;12.066;2022-12-18T12:41:09;36.08;;;15.77;;
56075;SDS011;41951;49.022;12.066;2022-12-18T12:43:57;35.58;;;15.57;;
56075;SDS011;41951;49.022;12.066;2022-12-18T12:46:26;42.15;;;15.95;;
56075;SDS011;41951;49.022;12.066;2022-12-18T12:49:01;33.42;;;15.50;;
56075;SDS011;41951;49.022;12.066;2022-12-18T12:51:33;38.35;;;15.05;;
56075;SDS011;41951;49.022;12.066;2022-12-18T12:54:02;32.38;;;14.05;;
56075;SDS011;41951;49.022;12.066;2022-12-18T12:59:47;36.08;;;14.98;;
56075;SDS011;41951;49.022;12.066;2022-12-18T13:08:02;35.80;;;14.80;;
56075;SDS011;41951;49.022;12.066;2022-12-18T13:10:40;32.45;;;13.82;;
56075;SDS011;41951;49.022;12.066;2022-12-18T13:13:07;29.83;;;13.93;;
56075;SDS011;41951;49.022;12.066;2022-12-18T13:15:42;33.95;;;15.48;;
56075;SDS011;41951;49.022;12.066;2022-12-18T13:18:14;32.03;;;15.45;;
56075;SDS011;41951;49.022;12.066;2022-12-18T13:25:45;31.38;;;13.65;;
56075;SDS011;41951;49.022;12.066;2022-12-18T13:28:12;33.03;;;14.15;;
56075;SDS011;41951;49.022;12.066;2022-12-18T13:30:49;29.77;;;14.00;;
56075;SDS011;41951;49.022;12.066;2022-12-18T13:43:43;33.67;;;15.93;;
56075;SDS011;41951;49.022;12.066;2022-12-18T13:46:27;33.78;;;15.70;;
56075;SDS011;41951;49.022;12.066;2022-12-18T13:51:42;36.03;;;15.23;;
56075;SDS011;41951;49.022;12.066;2022-12-18T13:57:03;35.63;;;16.15;;
56075;SDS011;41951;49.022;12.066;2022-12-18T13:59:34;36.53;;;16.45;;
56075;SDS011;41951;49.022;12.066;2022-12-18T14:02:07;39.13;;;16.52;;
56075;SDS011;41951;49.022;12.066;2022-12-18T14:04:44;34.60;;;16.13;;
56075;SDS011;41951;49.022;12.066;2022-12-18T14:07:11;40.72;;;15.70;;
56075;SDS011;41951;49.022;12.066;2022-12-18T14:09:42;36.72;;;16.77;;
56075;SDS011;41951;49.022;12.066;2022-12-18T14:15:21;38.43;;;16.60;;
56075;SDS011;41951;49.022;12.066;2022-12-18T14:17:49;33.55;;;15.10;;
56075;SDS011;41951;49.022;12.066;2022-12-18T14:20:15;40.13;;;16.75;;
56075;SDS011;41951;49.022;12.066;2022-12-18T14:22:43;38.60;;;16.70;;
56075;SDS011;41951;49.022;12.066;2022-12-18T14:27:43;42.90;;;17.85;;
56075;SDS011;41951;49.022;12.066;2022-12-18T14:30:24;35.00;;;15.75;;
56075;SDS011;41951;49.022;12.066;2022-12-18T14:33:10;36.63;;;15.57;;
56075;SDS011;41951;49.022;12.066;2022-12-18T14:35:37;34.20;;;15.25;;
56075;SDS011;41951;49.022;12.066;2022-12-18T14:38:17;41.33;;;17.38;;
56075;SDS011;41951;49.022;12.066;2022-12-18T14:40:47;38.55;;;17.15;;
56075;SDS011;41951;49.022;12.066;2022-12-18T14:43:16;35.78;;;16.25;;
56075;SDS011;41951;49.022;12.066;2022-12-18T14:45:42;37.83;;;17.15;;
56075;SDS011;41951;49.022;12.066;2022-12-18T14:48:15;39.70;;;18.40;;
56075;SDS011;41951;49.022;12.066;2022-12-18T14:50:42;41.63;;;17.00;;
56075;SDS011;41951;49.022;12.066;2022-12-18T14:56:03;33.58;;;15.63;;
56075;SDS011;41951;49.022;12.066;2022-12-18T14:58:38;39.83;;;17.10;;
56075;SDS011;41951;49.022;12.066;2022-12-18T15:01:04;39.97;;;16.17;;
56075;SDS011;41951;49.022;12.066;2022-12-18T15:03:30;34.35;;;15.52;;
56075;SDS011;41951;49.022;12.066;2022-12-18T15:05:56;35.70;;;15.43;;
56075;SDS011;41951;49.022;12.066;2022-12-18T15:08:49;33.47;;;14.50;;
56075;SDS011;41951;49.022;12.066;2022-12-18T15:11:27;30.90;;;15.68;;
56075;SDS011;41951;49.022;12.066;2022-12-18T15:13:59;38.28;;;16.13;;
56075;SDS011;41951;49.022;12.066;2022-12-18T15:16:49;36.42;;;14.52;;
56075;SDS011;41951;49.022;12.066;2022-12-18T15:19:15;34.92;;;15.52;;
56075;SDS011;41951;49.022;12.066;2022-12-18T15:21:42;35.65;;;15.68;;
56075;SDS011;41951;49.022;12.066;2022-12-18T15:24:15;35.63;;;15.40;;
56075;SDS011;41951;49.022;12.066;2022-12-18T15:26:48;39.20;;;16.80;;
56075;SDS011;41951;49.022;12.066;2022-12-18T15:29:18;34.97;;;15.55;;
56075;SDS011;41951;49.022;12.066;2022-12-18T15:31:57;35.92;;;15.15;;
56075;SDS011;41951;49.022;12.066;2022-12-18T15:34:25;35.47;;;16.83;;
56075;SDS011;41951;49.022;12.066;2022-12-18T15:36:51;35.00;;;15.15;;
56075;SDS011;41951;49.022;12.066;2022-12-18T15:39:17;38.55;;;16.02;;
56075;SDS011;41951;49.022;12.066;2022-12-18T15:41:43;38.72;;;16.08;;
56075;SDS011;41951;49.022;12.066;2022-12-18T15:44:28;39.42;;;17.85;;
56075;SDS011;41951;49.022;12.066;2022-12-18T15:46:54;38.75;;;18.05;;
56075;SDS011;41951;49.022;12.066;2022-12-18T15:49:21;39.10;;;17.20;;
56075;SDS011;41951;49.022;12.066;2022-12-18T15:51:48;36.25;;;16.73;;
56075;SDS011;41951;49.022;12.066;2022-12-18T15:54:18;35.80;;;16.33;;
56075;SDS011;41951;49.022;12.066;2022-12-18T15:57:04;35.83;;;16.73;;
56075;SDS011;41951;49.022;12.066;2022-12-18T15:59:48;33.28;;;16.10;;
56075;SDS011;41951;49.022;12.066;2022-12-18T16:02:15;42.30;;;18.42;;
56075;SDS011;41951;49.022;12.066;2022-12-18T16:04:43;36.58;;;16.60;;
56075;SDS011;41951;49.022;12.066;2022-12-18T16:07:08;39.22;;;17.67;;
56075;SDS011;41951;49.022;12.066;2022-12-18T16:09:35;39.80;;;18.50;;
56075;SDS011;41951;49.022;12.066;2022-12-18T16:12:01;36.58;;;16.70;;
56075;SDS011;41951;49.022;12.066;2022-12-18T16:14:28;40.15;;;18.13;;
56075;SDS011;41951;49.022;12.066;2022-12-18T16:16:56;39.78;;;18.15;;
56075;SDS011;41951;49.022;12.066;2022-12-18T16:19:23;34.03;;;16.02;;
56075;SDS011;41951;49.022;12.066;2022-12-18T16:21:50;37.80;;;17.40;;
56075;SDS011;41951;49.022;12.066;2022-12-18T16:24:17;35.42;;;17.50;;
56075;SDS011;41951;49.022;12.066;2022-12-18T16:26:44;36.85;;;16.30;;
56075;SDS011;41951;49.022;12.066;2022-12-18T16:29:10;36.05;;;16.88;;
56075;SDS011;41951;49.022;12.066;2022-12-18T16:31:36;36.97;;;16.52;;
56075;SDS011;41951;49.022;12.066;2022-12-18T16:36:52;38.83;;;17.23;;